sensor_id;sensor_type;location;lat;lon;timestamp;pressure;altitude;pressure_sealevel;temperature;humidity
29549;BME280;16487;53.094;8.800;2022-11-02T00:00:12;101509.13;;;12.79;100.00
29549;BME280;16487;53.094;8.800;2022-11-02T00:02:40;101513.47;;;12.80;100.00
29549;BME280;16487;53.094;8.800;2022-11-02T00:05:10;101516.63;;;12.82;100.00
29549;BME280;16487;53.094;8.800;2022-11-02T00:07:39;101510.00;;;12.76;100.00
29549;BME280;16487;53.094;8.800;2022-11-02T00:10:08;101501.69;;;12.73;100.00
29549;BME280;16487;53.094;8.800;2022-11-02T00:12:35;101508.94;;;12.70;100.00
29549;BME280;16487;53.094;8.800;2022-11-02T00:15:04;101507.28;;;12.73;100.00
29549;BME280;16487;53.094;8.800;2022-11-02T00:17:32;101496.53;;;12.71;100.00
29549;BME280;16487;53.094;8.800;2022-11-02T00:20:01;101495.41;;;12.68;100.00
29549;BME280;16487;53.094;8.800;2022-11-02T00:22:29;101490.59;;;12.69;100.00
29549;BME280;16487;53.094;8.800;2022-11-02T00:24:58;101491.28;;;12.73;100.00
29549;BME280;16487;53.094;8.800;2022-11-02T00:27:27;101476.94;;;12.71;100.00
29549;BME280;16487;53.094;8.800;2022-11-02T00:29:55;101485.69;;;12.73;100.00
29549;BME280;16487;53.094;8.800;2022-11-02T00:32:22;101482.13;;;12.73;100.00
29549;BME280;16487;53.094;8.800;2022-11-02T00:34:50;101476.84;;;12.75;100.00
29549;BME280;16487;53.094;8.800;2022-11-02T00:37:18;101483.22;;;12.75;100.00
29549;BME280;16487;53.094;8.800;2022-11-02T00:39:45;101464.69;;;12.81;100.00
29549;BME280;16487;53.094;8.800;2022-11-02T00:42:14;101465.13;;;12.80;100.00
29549;BME280;16487;53.094;8.800;2022-11-02T00:44:42;101463.03;;;12.84;100.00
29549;BME280;16487;53.094;8.800;2022-11-02T00:47:09;101464.69;;;12.81;100.00
29549;BME280;16487;53.094;8.800;2022-11-02T00:49:38;101462.22;;;12.83;100.00
29549;BME280;16487;53.094;8.800;2022-11-02T00:52:05;101467.72;;;12.87;100.00
29549;BME280;16487;53.094;8.800;2022-11-02T00:54:33;101463.13;;;12.80;100.00
29549;BME280;16487;53.094;8.800;2022-11-02T00:57:00;101471.94;;;12.79;100.00
29549;BME280;16487;53.094;8.800;2022-11-02T00:59:33;101470.97;;;12.85;100.00
29549;BME280;16487;53.094;8.800;2022-11-02T01:02:01;101466.06;;;12.89;100.00
29549;BME280;16487;53.094;8.800;2022-11-02T01:04:28;101448.59;;;12.85;100.00
29549;BME280;16487;53.094;8.800;2022-11-02T01:06:55;101450.28;;;12.83;100.00
29549;BME280;16487;53.094;8.800;2022-11-02T01:09:23;101464.50;;;12.88;100.00
29549;BME280;16487;53.094;8.800;2022-11-02T01:11:50;101455.34;;;12.72;100.00
29549;BME280;16487;53.094;8.800;2022-11-02T01:14:18;101460.03;;;12.46;100.00
29549;BME280;16487;53.094;8.800;2022-11-02T01:16:46;101457.25;;;12.30;100.00
29549;BME280;16487;53.094;8.800;2022-11-02T01:19:14;101468.50;;;12.26;100.00
29549;BME280;16487;53.094;8.800;2022-11-02T01:21:41;101467.94;;;12.19;100.00
29549;BME280;16487;53.094;8.800;2022-11-02T01:24:08;101467.31;;;12.11;100.00
29549;BME280;16487;53.094;8.800;2022-11-02T01:26:36;101471.13;;;12.17;100.00
29549;BME280;16487;53.094;8.800;2022-11-02T01:29:03;101460.84;;;12.14;100.00
29549;BME280;16487;53.094;8.800;2022-11-02T01:31:30;101461.81;;;12.24;100.00
29549;BME280;16487;53.094;8.800;2022-11-02T01:33:59;101473.13;;;12.33;100.00
29549;BME280;16487;53.094;8.800;2022-11-02T01:36:26;101485.03;;;12.37;100.00
29549;BME280;16487;53.094;8.800;2022-11-02T01:38:54;101472.38;;;12.32;100.00
29549;BME280;16487;53.094;8.800;2022-11-02T01:41:21;101467.63;;;12.29;100.00
29549;BME280;16487;53.094;8.800;2022-11-02T01:43:53;101462.56;;;12.24;100.00
29549;BME280;16487;53.094;8.800;2022-11-02T01:46:22;101447.97;;;12.33;100.00
29549;BME280;16487;53.094;8.800;2022-11-02T01:48:56;101455.94;;;12.34;100.00
29549;BME280;16487;53.094;8.800;2022-11-02T01:51:29;101459.34;;;12.42;100.00
29549;BME280;16487;53.094;8.800;2022-11-02T01:54:01;101452.00;;;12.48;100.00
29549;BME280;16487;53.094;8.800;2022-11-02T01:56:30;101447.09;;;12.52;100.00
29549;BME280;16487;53.094;8.800;2022-11-02T01:59:01;101443.09;;;12.53;100.00
29549;BME280;16487;53.094;8.800;2022-11-02T02:01:29;101444.44;;;12.61;100.00
29549;BME280;16487;53.094;8.800;2022-11-02T02:03:58;101441.47;;;12.68;100.00
29549;BME280;16487;53.094;8.800;2022-11-02T02:06:27;101427.38;;;12.72;100.00
29549;BME280;16487;53.094;8.800;2022-11-02T02:08:56;101424.50;;;12.75;100.00
29549;BME280;16487;53.094;8.800;2022-11-02T02:11:30;101413.84;;;12.70;100.00
29549;BME280;16487;53.094;8.800;2022-11-02T02:14:00;101417.53;;;12.67;100.00
29549;BME280;16487;53.094;8.800;2022-11-02T02:16:45;101421.44;;;12.69;100.00
29549;BME280;16487;53.094;8.800;2022-11-02T02:19:40;101406.69;;;12.69;100.00
29549;BME280;16487;53.094;8.800;2022-11-02T02:22:36;101402.31;;;12.68;100.00
29549;BME280;16487;53.094;8.800;2022-11-02T02:25:22;101405.81;;;12.72;100.00
29549;BME280;16487;53.094;8.800;2022-11-02T02:28:03;101407.72;;;12.75;100.00
29549;BME280;16487;53.094;8.800;2022-11-02T02:30:41;101397.06;;;12.70;100.00
29549;BME280;16487;53.094;8.800;2022-11-02T02:33:12;101401.53;;;12.67;100.00
29549;BME280;16487;53.094;8.800;2022-11-02T02:35:44;101397.41;;;12.72;100.00
29549;BME280;16487;53.094;8.800;2022-11-02T02:38:14;101392.16;;;12.74;100.00
29549;BME280;16487;53.094;8.800;2022-11-02T02:40:49;101391.81;;;12.72;100.00
29549;BME280;16487;53.094;8.800;2022-11-02T02:43:24;101392.38;;;12.67;100.00
29549;BME280;16487;53.094;8.800;2022-11-02T02:45:59;101391.75;;;12.59;100.00
29549;BME280;16487;53.094;8.800;2022-11-02T02:48:29;101401.13;;;12.53;100.00
29549;BME280;16487;53.094;8.800;2022-11-02T02:51:01;101402.44;;;12.48;100.00
29549;BME280;16487;53.094;8.800;2022-11-02T02:53:35;101400.88;;;12.47;100.00
29549;BME280;16487;53.094;8.800;2022-11-02T02:56:05;101404.81;;;12.50;100.00
29549;BME280;16487;53.094;8.800;2022-11-02T02:58:39;101414.50;;;12.45;100.00
29549;BME280;16487;53.094;8.800;2022-11-02T03:01:10;101414.97;;;12.44;100.00
29549;BME280;16487;53.094;8.800;2022-11-02T03:03:40;101411.38;;;12.43;100.00
29549;BME280;16487;53.094;8.800;2022-11-02T03:06:15;101412.97;;;12.44;100.00
29549;BME280;16487;53.094;8.800;2022-11-02T03:08:55;101413.03;;;12.41;100.00
29549;BME280;16487;53.094;8.800;2022-11-02T03:11:27;101414.25;;;12.40;100.00
29549;BME280;16487;53.094;8.800;2022-11-02T03:14:17;101420.91;;;12.30;100.00
29549;BME280;16487;53.094;8.800;2022-11-02T03:17:02;101419.25;;;12.32;100.00
29549;BME280;16487;53.094;8.800;2022-11-02T03:19:37;101422.91;;;12.29;100.00
29549;BME280;16487;53.094;8.800;2022-11-02T03:22:17;101431.06;;;12.24;100.00
29549;BME280;16487;53.094;8.800;2022-11-02T03:24:54;101443.09;;;12.21;100.00
29549;BME280;16487;53.094;8.800;2022-11-02T03:27:31;101441.97;;;12.18;100.00
29549;BME280;16487;53.094;8.800;2022-11-02T03:30:07;101452.72;;;12.20;100.00
29549;BME280;16487;53.094;8.800;2022-11-02T03:32:39;101447.22;;;12.32;100.00
29549;BME280;16487;53.094;8.800;2022-11-02T03:35:14;101462.41;;;12.47;100.00
29549;BME280;16487;53.094;8.800;2022-11-02T03:37:46;101445.84;;;12.69;100.00
29549;BME280;16487;53.094;8.800;2022-11-02T03:40:21;101462.22;;;12.83;100.00
29549;BME280;16487;53.094;8.800;2022-11-02T03:42:52;101466.25;;;12.82;100.00
29549;BME280;16487;53.094;8.800;2022-11-02T03:45:23;101452.47;;;12.75;100.00
29549;BME280;16487;53.094;8.800;2022-11-02T03:47:56;101474.75;;;12.79;100.00
29549;BME280;16487;53.094;8.800;2022-11-02T03:50:24;101487.94;;;12.78;100.00
29549;BME280;16487;53.094;8.800;2022-11-02T03:52:55;101492.13;;;12.86;100.00
29549;BME280;16487;53.094;8.800;2022-11-02T03:55:28;101487.31;;;12.87;100.00
29549;BME280;16487;53.094;8.800;2022-11-02T03:57:57;101488.34;;;12.93;100.00
29549;BME280;16487;53.094;8.800;2022-11-02T04:00:32;101484.13;;;13.01;100.00
29549;BME280;16487;53.094;8.800;2022-11-02T04:03:04;101479.16;;;13.08;100.00
29549;BME280;16487;53.094;8.800;2022-11-02T04:05:34;101473.72;;;13.17;100.00
29549;BME280;16487;53.094;8.800;2022-11-02T04:08:17;101469.31;;;13.16;100.00
29549;BME280;16487;53.094;8.800;2022-11-02T04:10:47;101471.00;;;13.14;100.00
29549;BME280;16487;53.094;8.800;2022-11-02T04:13:14;101478.25;;;13.11;100.00
29549;BME280;16487;53.094;8.800;2022-11-02T04:15:43;101485.56;;;13.09;100.00
29549;BME280;16487;53.094;8.800;2022-11-02T04:18:12;101479.31;;;13.01;100.00
29549;BME280;16487;53.094;8.800;2022-11-02T04:20:39;101486.91;;;12.88;100.00
29549;BME280;16487;53.094;8.800;2022-11-02T04:23:07;101494.25;;;12.82;100.00
29549;BME280;16487;53.094;8.800;2022-11-02T04:25:34;101503.88;;;12.81;100.00
29549;BME280;16487;53.094;8.800;2022-11-02T04:28:13;101507.09;;;12.80;100.00
29549;BME280;16487;53.094;8.800;2022-11-02T04:30:47;101505.44;;;12.82;100.00
29549;BME280;16487;53.094;8.800;2022-11-02T04:33:15;101520.47;;;12.88;100.00
29549;BME280;16487;53.094;8.800;2022-11-02T04:35:48;101524.28;;;12.94;100.00
29549;BME280;16487;53.094;8.800;2022-11-02T04:38:17;101525.75;;;12.99;100.00
29549;BME280;16487;53.094;8.800;2022-11-02T04:40:45;101527.81;;;12.82;100.00
29549;BME280;16487;53.094;8.800;2022-11-02T04:43:13;101537.72;;;12.71;100.00
29549;BME280;16487;53.094;8.800;2022-11-02T04:45:40;101544.06;;;12.71;100.00
29549;BME280;16487;53.094;8.800;2022-11-02T04:48:09;101550.00;;;12.73;100.00
29549;BME280;16487;53.094;8.800;2022-11-02T04:50:37;101553.69;;;12.70;100.00
29549;BME280;16487;53.094;8.800;2022-11-02T04:53:05;101550.91;;;12.54;100.00
29549;BME280;16487;53.094;8.800;2022-11-02T04:55:32;101562.44;;;12.40;100.00
29549;BME280;16487;53.094;8.800;2022-11-02T04:58:00;101565.31;;;12.36;100.00
29549;BME280;16487;53.094;8.800;2022-11-02T05:00:27;101560.03;;;12.06;100.00
29549;BME280;16487;53.094;8.800;2022-11-02T05:02:55;101593.38;;;11.78;100.00
29549;BME280;16487;53.094;8.800;2022-11-02T05:05:24;101594.13;;;11.58;100.00
29549;BME280;16487;53.094;8.800;2022-11-02T05:07:55;101613.47;;;11.49;100.00
29549;BME280;16487;53.094;8.800;2022-11-02T05:10:22;101631.13;;;11.43;100.00
29549;BME280;16487;53.094;8.800;2022-11-02T05:12:55;101643.47;;;11.45;100.00
29549;BME280;16487;53.094;8.800;2022-11-02T05:15:22;101654.31;;;11.40;100.00
29549;BME280;16487;53.094;8.800;2022-11-02T05:17:50;101659.66;;;11.31;100.00
29549;BME280;16487;53.094;8.800;2022-11-02T05:20:17;101682.72;;;11.35;100.00
29549;BME280;16487;53.094;8.800;2022-11-02T05:22:46;101698.66;;;11.34;100.00
29549;BME280;16487;53.094;8.800;2022-11-02T05:25:15;101733.88;;;11.28;100.00
29549;BME280;16487;53.094;8.800;2022-11-02T05:27:42;101760.34;;;11.17;100.00
29549;BME280;16487;53.094;8.800;2022-11-02T05:30:11;101788.31;;;11.13;100.00
29549;BME280;16487;53.094;8.800;2022-11-02T05:32:39;101823.44;;;11.11;100.00
29549;BME280;16487;53.094;8.800;2022-11-02T05:35:07;101845.81;;;11.07;100.00
29549;BME280;16487;53.094;8.800;2022-11-02T05:37:35;101886.53;;;11.01;100.00
29549;BME280;16487;53.094;8.800;2022-11-02T05:40:05;101907.28;;;11.00;100.00
29549;BME280;16487;53.094;8.800;2022-11-02T05:42:33;101951.88;;;11.04;100.00
29549;BME280;16487;53.094;8.800;2022-11-02T05:45:00;101964.63;;;11.01;100.00
29549;BME280;16487;53.094;8.800;2022-11-02T05:47:27;101987.00;;;10.98;100.00
29549;BME280;16487;53.094;8.800;2022-11-02T05:49:55;102004.94;;;10.97;100.00
29549;BME280;16487;53.094;8.800;2022-11-02T05:52:22;102030.41;;;11.02;100.00
29549;BME280;16487;53.094;8.800;2022-11-02T05:54:49;102052.69;;;11.06;100.00
29549;BME280;16487;53.094;8.800;2022-11-02T05:57:18;102065.75;;;11.12;100.00
29549;BME280;16487;53.094;8.800;2022-11-02T05:59:45;102080.50;;;11.13;100.00
29549;BME280;16487;53.094;8.800;2022-11-02T06:02:15;102091.72;;;11.09;100.00
29549;BME280;16487;53.094;8.800;2022-11-02T06:04:43;102102.03;;;11.12;100.00
29549;BME280;16487;53.094;8.800;2022-11-02T06:07:10;102099.25;;;11.12;100.00
29549;BME280;16487;53.094;8.800;2022-11-02T06:09:37;102104.75;;;11.19;100.00
29549;BME280;16487;53.094;8.800;2022-11-02T06:12:05;102091.94;;;11.25;100.00
29549;BME280;16487;53.094;8.800;2022-11-02T06:14:34;102081.59;;;11.22;100.00
29549;BME280;16487;53.094;8.800;2022-11-02T06:17:01;102068.03;;;11.24;100.00
29549;BME280;16487;53.094;8.800;2022-11-02T06:19:28;102063.19;;;11.28;100.00
29549;BME280;16487;53.094;8.800;2022-11-02T06:21:56;102043.69;;;11.25;100.00
29549;BME280;16487;53.094;8.800;2022-11-02T06:24:23;102032.13;;;11.26;100.00
29549;BME280;16487;53.094;8.800;2022-11-02T06:26:50;102024.41;;;11.37;100.00
29549;BME280;16487;53.094;8.800;2022-11-02T06:29:17;102008.88;;;11.36;100.00
29549;BME280;16487;53.094;8.800;2022-11-02T06:31:46;101998.00;;;11.45;100.00
29549;BME280;16487;53.094;8.800;2022-11-02T06:34:13;101978.81;;;11.47;100.00
29549;BME280;16487;53.094;8.800;2022-11-02T06:36:40;101965.72;;;11.44;100.00
29549;BME280;16487;53.094;8.800;2022-11-02T06:39:07;101962.78;;;11.51;100.00
29549;BME280;16487;53.094;8.800;2022-11-02T06:41:35;101937.56;;;11.58;100.00
29549;BME280;16487;53.094;8.800;2022-11-02T06:44:02;101934.47;;;11.53;100.00
29549;BME280;16487;53.094;8.800;2022-11-02T06:46:29;101922.50;;;11.52;100.00
29549;BME280;16487;53.094;8.800;2022-11-02T06:48:58;101939.63;;;11.54;100.00
29549;BME280;16487;53.094;8.800;2022-11-02T06:51:25;101917.97;;;11.62;100.00
29549;BME280;16487;53.094;8.800;2022-11-02T06:53:52;101908.44;;;11.60;100.00
29549;BME280;16487;53.094;8.800;2022-11-02T06:56:20;101900.78;;;11.64;100.00
29549;BME280;16487;53.094;8.800;2022-11-02T06:58:47;101900.41;;;11.65;100.00
29549;BME280;16487;53.094;8.800;2022-11-02T07:01:14;101893.06;;;11.75;100.00
29549;BME280;16487;53.094;8.800;2022-11-02T07:03:42;101876.63;;;11.80;100.00
29549;BME280;16487;53.094;8.800;2022-11-02T07:06:10;101856.03;;;11.94;100.00
29549;BME280;16487;53.094;8.800;2022-11-02T07:08:40;101844.88;;;11.94;100.00
29549;BME280;16487;53.094;8.800;2022-11-02T07:11:11;101831.69;;;11.94;100.00
29549;BME280;16487;53.094;8.800;2022-11-02T07:13:39;101817.22;;;11.99;100.00
29549;BME280;16487;53.094;8.800;2022-11-02T07:16:06;101804.00;;;12.03;100.00
29549;BME280;16487;53.094;8.800;2022-11-02T07:18:33;101811.09;;;12.08;100.00
29549;BME280;16487;53.094;8.800;2022-11-02T07:21:01;101790.53;;;12.18;100.00
29549;BME280;16487;53.094;8.800;2022-11-02T07:23:29;101782.16;;;12.18;100.00
29549;BME280;16487;53.094;8.800;2022-11-02T07:25:57;101785.31;;;12.20;100.00
29549;BME280;16487;53.094;8.800;2022-11-02T07:28:26;101776.41;;;12.25;100.00
29549;BME280;16487;53.094;8.800;2022-11-02T07:30:54;101756.34;;;12.30;100.00
29549;BME280;16487;53.094;8.800;2022-11-02T07:33:21;101758.78;;;12.28;100.00
29549;BME280;16487;53.094;8.800;2022-11-02T07:35:49;101749.19;;;12.29;100.00
29549;BME280;16487;53.094;8.800;2022-11-02T07:38:16;101749.03;;;12.36;100.00
29549;BME280;16487;53.094;8.800;2022-11-02T07:40:47;101744.59;;;12.38;100.00
29549;BME280;16487;53.094;8.800;2022-11-02T07:43:15;101738.31;;;12.50;100.00
29549;BME280;16487;53.094;8.800;2022-11-02T07:45:52;101729.72;;;12.61;100.00
29549;BME280;16487;53.094;8.800;2022-11-02T07:48:19;101726.91;;;12.61;100.00
29549;BME280;16487;53.094;8.800;2022-11-02T07:50:47;101718.28;;;12.72;100.00
29549;BME280;16487;53.094;8.800;2022-11-02T07:53:14;101728.69;;;12.71;100.00
29549;BME280;16487;53.094;8.800;2022-11-02T07:55:42;101710.09;;;12.81;100.00
29549;BME280;16487;53.094;8.800;2022-11-02T07:58:11;101697.84;;;12.91;100.00
29549;BME280;16487;53.094;8.800;2022-11-02T08:00:40;101685.56;;;13.04;100.00
29549;BME280;16487;53.094;8.800;2022-11-02T08:03:09;101679.78;;;13.11;100.00
29549;BME280;16487;53.094;8.800;2022-11-02T08:05:39;101673.66;;;13.16;100.00
29549;BME280;16487;53.094;8.800;2022-11-02T08:08:09;101666.31;;;13.22;100.00
29549;BME280;16487;53.094;8.800;2022-11-02T08:10:37;101674.00;;;13.18;100.00
29549;BME280;16487;53.094;8.800;2022-11-02T08:13:07;101664.59;;;13.12;100.00
29549;BME280;16487;53.094;8.800;2022-11-02T08:15:35;101669.47;;;13.08;100.00
29549;BME280;16487;53.094;8.800;2022-11-02T08:18:05;101674.81;;;13.19;100.00
29549;BME280;16487;53.094;8.800;2022-11-02T08:20:34;101666.84;;;13.17;100.00
29549;BME280;16487;53.094;8.800;2022-11-02T08:23:02;101669.66;;;13.17;100.00
29549;BME280;16487;53.094;8.800;2022-11-02T08:25:29;101665.25;;;13.16;100.00
29549;BME280;16487;53.094;8.800;2022-11-02T08:27:57;101676.00;;;13.18;100.00
29549;BME280;16487;53.094;8.800;2022-11-02T08:30:26;101659.31;;;13.30;100.00
29549;BME280;16487;53.094;8.800;2022-11-02T08:33:01;101666.97;;;13.42;100.00
29549;BME280;16487;53.094;8.800;2022-11-02T08:35:28;101664.94;;;13.59;100.00
29549;BME280;16487;53.094;8.800;2022-11-02T08:37:56;101650.50;;;13.60;100.00
29549;BME280;16487;53.094;8.800;2022-11-02T08:40:23;101648.78;;;13.50;100.00
29549;BME280;16487;53.094;8.800;2022-11-02T08:42:54;101654.31;;;13.38;100.00
29549;BME280;16487;53.094;8.800;2022-11-02T08:45:22;101663.53;;;13.51;100.00
29549;BME280;16487;53.094;8.800;2022-11-02T08:47:49;101652.53;;;13.44;100.00
29549;BME280;16487;53.094;8.800;2022-11-02T08:50:18;101649.63;;;13.47;100.00
29549;BME280;16487;53.094;8.800;2022-11-02T08:52:45;101668.47;;;13.47;100.00
29549;BME280;16487;53.094;8.800;2022-11-02T08:55:12;101671.50;;;13.52;100.00
29549;BME280;16487;53.094;8.800;2022-11-02T08:57:44;101644.09;;;13.89;100.00
29549;BME280;16487;53.094;8.800;2022-11-02T09:00:12;101652.28;;;13.96;100.00
29549;BME280;16487;53.094;8.800;2022-11-02T09:02:40;101645.31;;;13.88;100.00
29549;BME280;16487;53.094;8.800;2022-11-02T09:05:07;101660.38;;;13.94;100.00
29549;BME280;16487;53.094;8.800;2022-11-02T09:07:36;101636.47;;;13.89;100.00
29549;BME280;16487;53.094;8.800;2022-11-02T09:10:04;101618.38;;;13.77;100.00
29549;BME280;16487;53.094;8.800;2022-11-02T09:12:31;101638.22;;;13.70;100.00
29549;BME280;16487;53.094;8.800;2022-11-02T09:14:59;101629.44;;;13.68;100.00
29549;BME280;16487;53.094;8.800;2022-11-02T09:17:27;101623.53;;;13.79;100.00
29549;BME280;16487;53.094;8.800;2022-11-02T09:19:55;101628.53;;;14.00;100.00
29549;BME280;16487;53.094;8.800;2022-11-02T09:22:22;101619.22;;;14.03;100.00
29549;BME280;16487;53.094;8.800;2022-11-02T09:24:51;101633.97;;;13.78;100.00
29549;BME280;16487;53.094;8.800;2022-11-02T09:27:18;101617.06;;;13.82;100.00
29549;BME280;16487;53.094;8.800;2022-11-02T09:29:45;101637.50;;;13.66;100.00
29549;BME280;16487;53.094;8.800;2022-11-02T09:32:13;101660.13;;;13.59;100.00
29549;BME280;16487;53.094;8.800;2022-11-02T09:34:40;101653.84;;;13.55;100.00
29549;BME280;16487;53.094;8.800;2022-11-02T09:37:07;101654.78;;;13.49;100.00
29549;BME280;16487;53.094;8.800;2022-11-02T09:39:34;101675.47;;;13.39;100.00
29549;BME280;16487;53.094;8.800;2022-11-02T09:42:10;101687.63;;;13.48;100.00
29549;BME280;16487;53.094;8.800;2022-11-02T09:44:49;101695.25;;;13.48;100.00
29549;BME280;16487;53.094;8.800;2022-11-02T09:47:19;101703.84;;;13.25;100.00
29549;BME280;16487;53.094;8.800;2022-11-02T09:50:12;101724.19;;;12.93;100.00
29549;BME280;16487;53.094;8.800;2022-11-02T09:52:41;101782.63;;;12.52;100.00
29549;BME280;16487;53.094;8.800;2022-11-02T09:55:14;101816.63;;;12.31;100.00
29549;BME280;16487;53.094;8.800;2022-11-02T09:57:45;101864.06;;;12.15;100.00
29549;BME280;16487;53.094;8.800;2022-11-02T10:00:19;101908.78;;;12.15;100.00
29549;BME280;16487;53.094;8.800;2022-11-02T10:02:54;101958.34;;;12.34;100.00
29549;BME280;16487;53.094;8.800;2022-11-02T10:05:39;101977.91;;;12.34;100.00
29549;BME280;16487;53.094;8.800;2022-11-02T10:08:28;102003.09;;;12.34;100.00
29549;BME280;16487;53.094;8.800;2022-11-02T10:11:11;102019.59;;;12.71;100.00
29549;BME280;16487;53.094;8.800;2022-11-02T10:13:45;101961.13;;;13.74;100.00
29549;BME280;16487;53.094;8.800;2022-11-02T10:16:20;101883.44;;;13.91;100.00
29549;BME280;16487;53.094;8.800;2022-11-02T10:18:49;101822.34;;;14.31;100.00
29549;BME280;16487;53.094;8.800;2022-11-02T10:21:19;101781.69;;;14.51;100.00
29549;BME280;16487;53.094;8.800;2022-11-02T10:23:50;101756.25;;;14.96;100.00
29549;BME280;16487;53.094;8.800;2022-11-02T10:26:21;101732.91;;;14.99;100.00
29549;BME280;16487;53.094;8.800;2022-11-02T10:28:56;101726.63;;;15.20;100.00
29549;BME280;16487;53.094;8.800;2022-11-02T10:31:26;101715.28;;;15.11;100.00
29549;BME280;16487;53.094;8.800;2022-11-02T10:33:56;101722.13;;;15.10;100.00
29549;BME280;16487;53.094;8.800;2022-11-02T10:36:37;101694.84;;;14.98;100.00
29549;BME280;16487;53.094;8.800;2022-11-02T10:39:17;101718.25;;;15.29;100.00
29549;BME280;16487;53.094;8.800;2022-11-02T10:42:10;101722.13;;;15.10;100.00
29549;BME280;16487;53.094;8.800;2022-11-02T10:44:54;101731.56;;;14.66;100.00
29549;BME280;16487;53.094;8.800;2022-11-02T10:47:26;101721.88;;;14.42;100.00
29549;BME280;16487;53.094;8.800;2022-11-02T10:50:11;101732.75;;;14.40;100.00
29549;BME280;16487;53.094;8.800;2022-11-02T10:52:41;101737.72;;;14.20;100.00
29549;BME280;16487;53.094;8.800;2022-11-02T10:55:18;101732.97;;;14.17;100.00
29549;BME280;16487;53.094;8.800;2022-11-02T10:57:47;101755.59;;;14.10;100.00
29549;BME280;16487;53.094;8.800;2022-11-02T11:00:24;101751.59;;;14.11;100.00
29549;BME280;16487;53.094;8.800;2022-11-02T11:03:03;101760.66;;;14.15;100.00
29549;BME280;16487;53.094;8.800;2022-11-02T11:05:31;101755.41;;;14.17;100.00
29549;BME280;16487;53.094;8.800;2022-11-02T11:07:59;101798.84;;;14.25;100.00
29549;BME280;16487;53.094;8.800;2022-11-02T11:10:32;101792.44;;;14.24;100.00
29549;BME280;16487;53.094;8.800;2022-11-02T11:13:02;101769.63;;;15.30;100.00
29549;BME280;16487;53.094;8.800;2022-11-02T11:15:33;101756.50;;;15.14;100.00
29549;BME280;16487;53.094;8.800;2022-11-02T11:18:18;101744.56;;;15.10;100.00
29549;BME280;16487;53.094;8.800;2022-11-02T11:21:06;101756.63;;;15.82;100.00
29549;BME280;16487;53.094;8.800;2022-11-02T11:23:34;101743.47;;;14.95;100.00
29549;BME280;16487;53.094;8.800;2022-11-02T11:26:03;101764.19;;;14.60;100.00
29549;BME280;16487;53.094;8.800;2022-11-02T11:28:33;101763.22;;;15.29;100.00
29549;BME280;16487;53.094;8.800;2022-11-02T11:31:09;101749.91;;;15.67;100.00
29549;BME280;16487;53.094;8.800;2022-11-02T11:33:44;101769.59;;;15.67;100.00
29549;BME280;16487;53.094;8.800;2022-11-02T11:36:21;101766.47;;;16.21;100.00
29549;BME280;16487;53.094;8.800;2022-11-02T11:38:50;101746.81;;;16.73;100.00
29549;BME280;16487;53.094;8.800;2022-11-02T11:41:19;101756.34;;;16.67;100.00
29549;BME280;16487;53.094;8.800;2022-11-02T11:43:48;101762.25;;;15.82;100.00
29549;BME280;16487;53.094;8.800;2022-11-02T11:46:18;101766.22;;;16.07;100.00
29549;BME280;16487;53.094;8.800;2022-11-02T11:48:47;101755.47;;;16.79;100.00
29549;BME280;16487;53.094;8.800;2022-11-02T11:51:34;101766.19;;;16.93;100.00
29549;BME280;16487;53.094;8.800;2022-11-02T11:54:05;101765.44;;;16.71;100.00
29549;BME280;16487;53.094;8.800;2022-11-02T11:56:40;101770.69;;;16.90;100.00
29549;BME280;16487;53.094;8.800;2022-11-02T11:59:19;101776.78;;;17.29;100.00
29549;BME280;16487;53.094;8.800;2022-11-02T12:01:50;101782.34;;;17.01;100.00
29549;BME280;16487;53.094;8.800;2022-11-02T12:04:30;101780.38;;;17.20;100.00
29549;BME280;16487;53.094;8.800;2022-11-02T12:09:50;101797.38;;;16.77;100.00
29549;BME280;16487;53.094;8.800;2022-11-02T12:12:30;101795.59;;;15.21;100.00
29549;BME280;16487;53.094;8.800;2022-11-02T12:15:09;101804.34;;;16.08;100.00
29549;BME280;16487;53.094;8.800;2022-11-02T12:17:51;101801.09;;;15.96;100.00
29549;BME280;16487;53.094;8.800;2022-11-02T12:20:46;101804.56;;;16.00;100.00
29549;BME280;16487;53.094;8.800;2022-11-02T12:23:32;101808.25;;;16.66;100.00
29549;BME280;16487;53.094;8.800;2022-11-02T12:26:17;101800.91;;;16.90;100.00
29549;BME280;16487;53.094;8.800;2022-11-02T12:28:57;101813.53;;;17.16;100.00
29549;BME280;16487;53.094;8.800;2022-11-02T12:31:32;101817.09;;;17.38;100.00
29549;BME280;16487;53.094;8.800;2022-11-02T12:37:03;101820.97;;;17.01;100.00
29549;BME280;16487;53.094;8.800;2022-11-02T12:40:05;101807.97;;;17.34;100.00
29549;BME280;16487;53.094;8.800;2022-11-02T12:42:39;101816.09;;;17.32;100.00
29549;BME280;16487;53.094;8.800;2022-11-02T12:45:20;101828.69;;;17.40;100.00
29549;BME280;16487;53.094;8.800;2022-11-02T12:47:55;101825.13;;;17.49;100.00
29549;BME280;16487;53.094;8.800;2022-11-02T12:50:36;101828.75;;;17.58;100.00
29549;BME280;16487;53.094;8.800;2022-11-02T12:53:35;101834.47;;;17.94;100.00
29549;BME280;16487;53.094;8.800;2022-11-02T12:56:07;101836.63;;;17.72;100.00
29549;BME280;16487;53.094;8.800;2022-11-02T12:58:38;101823.63;;;17.66;100.00
29549;BME280;16487;53.094;8.800;2022-11-02T13:01:10;101838.22;;;17.43;100.00
29549;BME280;16487;53.094;8.800;2022-11-02T13:03:47;101852.41;;;17.30;100.00
29549;BME280;16487;53.094;8.800;2022-11-02T13:06:25;101839.66;;;17.47;100.00